createdAt,value
2022-12-04T00:01:32.234Z,32.38
2022-12-04T00:04:02.369Z,33.03
2022-12-04T00:06:31.092Z,32.30
2022-12-04T00:08:59.777Z,32.72
2022-12-04T00:11:31.912Z,31.85
2022-12-04T00:14:06.572Z,32.70
2022-12-04T00:16:36.105Z,31.80
2022-12-04T00:19:04.446Z,34.08
2022-12-04T00:21:32.817Z,32.25
2022-12-04T00:24:01.072Z,31.67
2022-12-04T00:26:32.165Z,32.45
2022-12-04T00:29:00.458Z,30.90
2022-12-04T00:31:31.121Z,32.67
2022-12-04T00:34:00.537Z,32.03
2022-12-04T00:36:30.441Z,33.40
2022-12-04T00:39:01.119Z,33.70
2022-12-04T00:41:32.764Z,33.28
2022-12-04T00:44:01.214Z,33.63
2022-12-04T00:46:30.082Z,32.40
2022-12-04T00:48:59.552Z,33.33
2022-12-04T00:51:27.742Z,33.83
2022-12-04T00:53:56.353Z,33.38
2022-12-04T00:56:27.354Z,32.75
2022-12-04T00:58:59.012Z,33.03
2022-12-04T01:01:32.098Z,33.55
2022-12-04T01:04:00.897Z,33.40
2022-12-04T01:06:31.546Z,32.92
2022-12-04T01:09:00.998Z,33.60
2022-12-04T01:11:31.058Z,33.40
2022-12-04T01:14:01.285Z,32.97
2022-12-04T01:16:34.250Z,33.63
2022-12-04T01:19:03.080Z,35.53
2022-12-04T01:21:31.223Z,32.72
2022-12-04T01:24:01.141Z,35.47
2022-12-04T01:26:29.943Z,34.28
2022-12-04T01:28:58.081Z,35.95
2022-12-04T01:31:28.106Z,34.80
2022-12-04T01:33:56.721Z,33.58
2022-12-04T01:36:27.578Z,34.83
2022-12-04T01:38:56.931Z,34.53
2022-12-04T01:41:27.962Z,35.33
2022-12-04T01:44:16.987Z,36.17
2022-12-04T01:46:48.004Z,33.75
2022-12-04T01:49:20.301Z,34.33
2022-12-04T01:51:51.457Z,34.45
2022-12-04T01:54:28.966Z,35.22
2022-12-04T01:57:03.242Z,36.25
2022-12-04T01:59:37.578Z,35.78
2022-12-04T02:02:12.016Z,36.47
2022-12-04T02:04:41.954Z,33.83
2022-12-04T02:07:10.358Z,34.35
2022-12-04T02:09:39.701Z,36.10
2022-12-04T02:12:15.213Z,35.15
2022-12-04T02:14:49.416Z,35.75
2022-12-04T02:17:29.162Z,35.05
2022-12-04T02:20:16.847Z,35.00
2022-12-04T02:23:07.438Z,37.03
2022-12-04T02:25:44.453Z,35.50
2022-12-04T02:28:23.185Z,36.92
2022-12-04T02:30:54.228Z,37.40
2022-12-04T02:33:26.916Z,36.85
2022-12-04T02:36:01.421Z,36.60
2022-12-04T02:38:36.468Z,37.08
2022-12-04T02:41:10.853Z,36.38
2022-12-04T02:43:45.932Z,37.03
2022-12-04T02:46:18.446Z,36.15
2022-12-04T02:48:51.526Z,38.00
2022-12-04T02:51:22.715Z,37.35
2022-12-04T02:53:54.148Z,37.60
2022-12-04T02:56:27.470Z,36.97
2022-12-04T02:59:00.129Z,40.22
2022-12-04T03:01:33.997Z,37.67
2022-12-04T03:04:06.919Z,38.72
2022-12-04T03:06:40.296Z,38.83
2022-12-04T03:09:14.153Z,38.72
2022-12-04T03:11:47.332Z,38.08
2022-12-04T03:14:20.221Z,38.50
2022-12-04T03:16:51.555Z,39.28
2022-12-04T03:19:25.274Z,39.28
2022-12-04T03:21:58.868Z,38.90
2022-12-04T03:27:02.292Z,38.10
2022-12-04T03:29:40.500Z,37.45
2022-12-04T03:32:12.448Z,38.88
2022-12-04T03:34:51.404Z,38.45
2022-12-04T03:37:25.810Z,39.20
2022-12-04T03:40:00.269Z,39.33
2022-12-04T03:42:33.692Z,39.33
2022-12-04T03:45:08.998Z,38.00
2022-12-04T03:47:44.273Z,38.92
2022-12-04T03:50:18.264Z,38.20
2022-12-04T03:52:52.328Z,38.30
2022-12-04T03:55:28.569Z,37.35
2022-12-04T03:58:00.981Z,39.45
2022-12-04T04:00:33.720Z,38.53
2022-12-04T04:03:08.976Z,39.70
2022-12-04T04:05:42.116Z,37.83
2022-12-04T04:08:33.891Z,38.25
2022-12-04T04:11:09.104Z,38.80
2022-12-04T04:13:59.591Z,38.60
2022-12-04T04:16:49.533Z,37.03
2022-12-04T04:19:37.954Z,39.35
2022-12-04T04:22:28.786Z,38.65
2022-12-04T04:25:03.372Z,37.85
2022-12-04T04:27:31.760Z,38.00
2022-12-04T04:30:00.048Z,38.10
2022-12-04T04:32:36.830Z,37.75
2022-12-04T04:35:11.805Z,37.75
2022-12-04T04:37:53.225Z,38.13
2022-12-04T04:40:26.712Z,38.92
2022-12-04T04:43:05.022Z,38.03
2022-12-04T04:45:37.072Z,36.40
2022-12-04T04:48:10.207Z,37.80
2022-12-04T04:50:39.856Z,38.42
2022-12-04T04:53:14.420Z,38.08
2022-12-04T04:55:43.276Z,37.25
2022-12-04T04:58:13.670Z,37.33
2022-12-04T05:00:46.187Z,38.20
2022-12-04T05:03:16.057Z,39.08
2022-12-04T05:05:44.264Z,37.65
2022-12-04T05:08:12.798Z,38.17
2022-12-04T05:10:41.076Z,37.60
2022-12-04T05:13:10.236Z,37.03
2022-12-04T05:15:38.494Z,39.15
2022-12-04T05:18:06.864Z,37.70
2022-12-04T05:20:38.520Z,38.53
2022-12-04T05:23:07.497Z,36.38
2022-12-04T05:25:35.602Z,38.97
2022-12-04T05:28:03.760Z,36.67
2022-12-04T05:30:32.531Z,38.17
2022-12-04T05:33:00.746Z,37.38
2022-12-04T05:35:28.998Z,38.38
2022-12-04T05:37:59.060Z,37.70
2022-12-04T05:40:27.180Z,38.17
2022-12-04T05:42:55.351Z,37.70
2022-12-04T05:45:23.793Z,37.97
2022-12-04T05:47:51.924Z,37.42
2022-12-04T05:50:20.224Z,37.53
2022-12-04T05:52:48.627Z,38.95
2022-12-04T05:55:18.297Z,37.13
2022-12-04T05:57:46.412Z,38.47
2022-12-04T06:00:16.513Z,36.80
2022-12-04T06:02:44.720Z,37.10
2022-12-04T06:05:13.013Z,36.80
2022-12-04T06:07:41.563Z,38.33
2022-12-04T06:10:10.067Z,37.33
2022-12-04T06:12:39.562Z,36.85
2022-12-04T06:15:08.422Z,36.65
2022-12-04T06:17:36.522Z,37.30
2022-12-04T06:20:10.946Z,39.10
2022-12-04T06:22:40.442Z,37.65
2022-12-04T06:25:09.717Z,37.30
2022-12-04T06:27:39.271Z,36.85
2022-12-04T06:30:09.118Z,37.63
2022-12-04T06:32:37.297Z,37.80
2022-12-04T06:35:07.028Z,35.95
2022-12-04T06:37:35.918Z,38.10
2022-12-04T06:40:04.245Z,36.00
2022-12-04T06:42:32.377Z,37.80
2022-12-04T06:45:02.463Z,37.88
2022-12-04T06:47:30.654Z,36.83
2022-12-04T06:49:59.039Z,35.63
2022-12-04T06:52:27.742Z,37.88
2022-12-04T06:54:56.060Z,38.25
2022-12-04T06:57:24.252Z,37.95
2022-12-04T06:59:52.834Z,36.88
2022-12-04T07:02:22.956Z,37.20
2022-12-04T07:04:55.472Z,37.78
2022-12-04T07:07:23.887Z,37.95
2022-12-04T07:09:51.998Z,36.13
2022-12-04T07:12:20.310Z,35.65
2022-12-04T07:14:48.737Z,37.15
2022-12-04T07:17:17.061Z,37.97
2022-12-04T07:19:46.991Z,36.28
2022-12-04T07:22:15.289Z,37.35
2022-12-04T07:24:43.407Z,37.30
2022-12-04T07:27:11.776Z,37.05
2022-12-04T07:29:40.063Z,37.85
2022-12-04T07:32:08.407Z,36.78
2022-12-04T07:34:36.991Z,36.03
2022-12-04T07:37:06.703Z,38.63
2022-12-04T07:39:34.886Z,36.88
2022-12-04T07:42:03.192Z,38.03
2022-12-04T07:44:32.487Z,38.17
2022-12-04T07:47:00.670Z,36.63
2022-12-04T07:49:29.209Z,38.80
2022-12-04T07:51:57.598Z,37.58
2022-12-04T07:54:27.155Z,37.30
2022-12-04T07:56:55.598Z,36.22
2022-12-04T07:59:23.882Z,37.13
2022-12-04T08:01:52.083Z,35.60
2022-12-04T08:04:20.384Z,37.35
2022-12-04T08:06:48.845Z,36.28
2022-12-04T08:09:17.064Z,37.03
2022-12-04T08:11:46.744Z,37.30
2022-12-04T08:14:15.323Z,36.90
2022-12-04T08:16:48.218Z,37.65
2022-12-04T08:19:19.483Z,36.50
2022-12-04T08:21:47.674Z,35.70
2022-12-04T08:24:15.984Z,37.03
2022-12-04T08:26:44.621Z,37.28
2022-12-04T08:29:14.181Z,36.83
2022-12-04T08:31:42.337Z,36.10
2022-12-04T08:34:10.642Z,37.50
2022-12-04T08:36:38.869Z,37.50
2022-12-04T08:39:06.971Z,36.78
2022-12-04T08:41:35.723Z,37.63
2022-12-04T08:44:03.876Z,38.45
2022-12-04T08:46:33.736Z,36.85
2022-12-04T08:49:02.246Z,37.15
2022-12-04T08:51:32.124Z,38.20
2022-12-04T08:54:02.634Z,37.08
2022-12-04T08:56:32.480Z,35.67
2022-12-04T08:59:01.487Z,38.70
2022-12-04T09:01:30.535Z,36.15
2022-12-04T09:04:00.841Z,38.72
2022-12-04T09:06:29.150Z,37.88
2022-12-04T09:08:58.463Z,38.88
2022-12-04T09:11:29.877Z,38.30
2022-12-04T09:13:58.039Z,37.15
2022-12-04T09:16:27.528Z,37.67
2022-12-04T09:18:56.735Z,37.20
2022-12-04T09:21:26.959Z,38.80
2022-12-04T09:23:55.490Z,37.42
2022-12-04T09:26:25.845Z,38.45
2022-12-04T09:28:55.360Z,39.25
2022-12-04T09:31:25.226Z,36.85
2022-12-04T09:33:54.177Z,37.95
2022-12-04T09:36:22.584Z,38.80
2022-12-04T09:38:53.910Z,38.22
2022-12-04T09:41:57.857Z,37.67
2022-12-04T09:44:29.464Z,37.75
2022-12-04T09:47:02.300Z,38.13
2022-12-04T09:49:37.732Z,37.50
2022-12-04T09:52:21.689Z,37.35
2022-12-04T09:54:54.064Z,37.42
2022-12-04T09:57:27.273Z,37.50
2022-12-04T09:59:56.503Z,36.92
2022-12-04T10:02:38.614Z,36.63
2022-12-04T10:05:15.776Z,36.35
2022-12-04T10:07:50.045Z,36.30
2022-12-04T10:10:28.326Z,36.78
2022-12-04T10:13:06.608Z,35.17
2022-12-04T10:15:42.150Z,37.20
2022-12-04T10:18:27.941Z,36.10
2022-12-04T10:21:32.456Z,36.90
2022-12-04T10:24:15.465Z,35.03
2022-12-04T10:26:48.553Z,36.17
2022-12-04T10:29:22.336Z,33.15
2022-12-04T10:31:53.029Z,37.60
2022-12-04T10:34:25.094Z,38.83
2022-12-04T10:36:56.136Z,42.50
2022-12-04T10:39:28.431Z,41.45
2022-12-04T10:42:02.840Z,37.65
2022-12-04T10:44:31.009Z,37.13
2022-12-04T10:47:02.757Z,36.42
2022-12-04T10:49:33.604Z,36.42
2022-12-04T10:52:02.464Z,34.25
2022-12-04T10:54:39.142Z,33.97
2022-12-04T10:57:10.609Z,29.60
2022-12-04T10:59:41.808Z,30.67
2022-12-04T11:02:21.466Z,27.17
2022-12-04T11:04:57.074Z,28.23
2022-12-04T11:07:27.993Z,29.10
2022-12-04T11:09:59.584Z,27.90
2022-12-04T11:12:29.495Z,28.38
2022-12-04T11:15:13.607Z,29.00
2022-12-04T11:17:41.962Z,28.35
2022-12-04T11:20:17.286Z,30.45
2022-12-04T11:22:52.800Z,28.83
2022-12-04T11:25:23.090Z,30.35
2022-12-04T11:27:55.810Z,29.75
2022-12-04T11:30:30.454Z,29.13
2022-12-04T11:32:59.542Z,29.20
2022-12-04T11:35:30.394Z,28.75
2022-12-04T11:38:08.126Z,29.67
2022-12-04T11:40:37.631Z,29.70
2022-12-04T11:43:14.204Z,30.25
2022-12-04T11:45:43.044Z,29.52
2022-12-04T11:48:17.347Z,29.23
2022-12-04T11:50:53.130Z,30.33
2022-12-04T11:53:27.621Z,29.55
2022-12-04T11:56:15.225Z,29.13
2022-12-04T11:59:14.424Z,27.45
2022-12-04T12:01:50.059Z,26.02
2022-12-04T12:05:00.403Z,27.05
2022-12-04T12:07:42.750Z,26.50
2022-12-04T12:10:18.410Z,27.75
2022-12-04T12:12:56.797Z,26.38
2022-12-04T12:15:38.077Z,26.25
2022-12-04T12:18:23.040Z,28.52
2022-12-04T12:21:02.603Z,26.58
2022-12-04T12:23:47.208Z,27.63
2022-12-04T12:26:18.279Z,27.45
2022-12-04T12:29:12.563Z,27.60
2022-12-04T12:31:55.324Z,28.52
2022-12-04T12:34:32.796Z,28.63
2022-12-04T12:37:03.638Z,30.13
2022-12-04T12:39:40.286Z,30.30
2022-12-04T12:42:16.514Z,29.85
2022-12-04T12:44:54.584Z,29.65
2022-12-04T12:47:28.718Z,29.48
2022-12-04T12:50:00.910Z,31.60
2022-12-04T12:52:35.948Z,31.58
2022-12-04T12:55:14.925Z,31.33
2022-12-04T12:57:46.854Z,32.15
2022-12-04T13:00:18.080Z,32.50
2022-12-04T13:02:52.509Z,31.85
2022-12-04T13:05:28.823Z,31.10
2022-12-04T13:08:04.871Z,31.85
2022-12-04T13:10:37.439Z,31.30
2022-12-04T13:13:10.056Z,32.20
2022-12-04T13:15:44.696Z,32.97
2022-12-04T13:18:25.355Z,32.95
2022-12-04T13:20:57.799Z,31.23
2022-12-04T13:23:44.734Z,29.67
2022-12-04T13:26:21.213Z,29.65
2022-12-04T13:28:56.084Z,29.55
2022-12-04T13:31:33.103Z,29.00
2022-12-04T13:34:27.309Z,28.27
2022-12-04T13:40:02.157Z,29.17
2022-12-04T13:42:30.881Z,27.58
2022-12-04T13:45:01.407Z,27.90
2022-12-04T13:47:32.988Z,27.33
2022-12-04T13:50:11.275Z,25.45
2022-12-04T13:52:42.211Z,26.25
2022-12-04T13:55:26.215Z,25.98
2022-12-04T13:57:55.786Z,25.67
2022-12-04T14:00:30.714Z,26.92
2022-12-04T14:03:02.035Z,25.63
2022-12-04T14:05:41.248Z,27.55
2022-12-04T14:08:25.179Z,25.73
2022-12-04T14:11:01.390Z,27.75
2022-12-04T14:13:37.316Z,28.45
2022-12-04T14:16:08.268Z,28.38
2022-12-04T14:18:36.898Z,29.58
2022-12-04T14:21:07.969Z,30.17
2022-12-04T14:23:38.161Z,31.98
2022-12-04T14:26:07.330Z,31.90
2022-12-04T14:28:42.855Z,31.30
2022-12-04T14:31:33.455Z,32.35
2022-12-04T14:34:05.730Z,32.28
2022-12-04T14:36:42.822Z,33.38
2022-12-04T14:39:17.315Z,33.67
2022-12-04T14:41:45.699Z,33.95
2022-12-04T14:44:26.854Z,34.83
2022-12-04T14:46:59.302Z,35.40
2022-12-04T14:49:41.441Z,37.05
2022-12-04T14:52:19.619Z,36.50
2022-12-04T14:54:57.472Z,38.67
2022-12-04T14:57:41.106Z,39.42
2022-12-04T15:00:18.010Z,39.90
2022-12-04T15:02:48.705Z,40.65
2022-12-04T15:05:21.743Z,41.55
2022-12-04T15:07:53.953Z,44.67
2022-12-04T15:10:42.124Z,42.40
2022-12-04T15:13:10.937Z,42.70
2022-12-04T15:15:45.745Z,42.75
2022-12-04T15:18:16.137Z,43.53
2022-12-04T15:20:54.245Z,44.75
2022-12-04T15:23:29.056Z,44.50
2022-12-04T15:25:59.569Z,44.83
2022-12-04T15:28:31.665Z,44.40
2022-12-04T15:31:01.798Z,45.22
2022-12-04T15:33:33.751Z,45.03
2022-12-04T15:36:05.550Z,44.67
2022-12-04T15:38:36.343Z,44.17
2022-12-04T15:41:04.618Z,46.33
2022-12-04T15:43:42.531Z,47.35
2022-12-04T15:46:15.080Z,46.97
2022-12-04T15:48:47.817Z,47.35
2022-12-04T15:51:20.012Z,45.92
2022-12-04T15:53:50.255Z,47.00
2022-12-04T15:56:20.897Z,48.60
2022-12-04T15:58:55.664Z,48.45
2022-12-04T16:01:24.007Z,47.40
2022-12-04T16:03:54.321Z,48.05
2022-12-04T16:06:24.973Z,44.28
2022-12-04T16:08:56.719Z,41.83
2022-12-04T16:11:31.509Z,42.40
2022-12-04T16:14:19.540Z,41.03
2022-12-04T16:16:49.937Z,40.85
2022-12-04T16:19:26.340Z,42.53
2022-12-04T16:21:55.408Z,41.92
2022-12-04T16:24:25.583Z,43.53
2022-12-04T16:26:55.945Z,44.45
2022-12-04T16:29:24.955Z,43.28
2022-12-04T16:31:57.079Z,42.28
2022-12-04T16:34:29.830Z,39.92
2022-12-04T16:36:58.120Z,39.75
2022-12-04T16:39:27.683Z,40.50
2022-12-04T16:41:56.260Z,40.15
2022-12-04T16:44:24.524Z,40.83
2022-12-04T16:46:52.840Z,41.60
2022-12-04T16:49:21.291Z,43.35
2022-12-04T16:51:50.759Z,44.13
2022-12-04T16:54:19.316Z,40.40
2022-12-04T16:56:49.222Z,43.42
2022-12-04T16:59:17.426Z,44.88
2022-12-04T17:01:47.943Z,42.67
2022-12-04T17:04:17.038Z,42.30
2022-12-04T17:06:46.420Z,42.35
2022-12-04T17:09:15.352Z,42.67
2022-12-04T17:11:44.883Z,42.88
2022-12-04T17:14:15.029Z,43.13
2022-12-04T17:16:46.911Z,43.50
2022-12-04T17:19:15.244Z,43.65
2022-12-04T17:21:45.113Z,43.40
2022-12-04T17:24:13.713Z,42.70
2022-12-04T17:26:42.004Z,44.65
2022-12-04T17:29:10.571Z,43.67
2022-12-04T17:31:40.407Z,42.58
2022-12-04T17:34:08.550Z,42.17
2022-12-04T17:36:37.279Z,43.80
2022-12-04T17:39:07.389Z,45.00
2022-12-04T17:41:35.868Z,43.00
2022-12-04T17:44:04.502Z,43.03
2022-12-04T17:46:33.010Z,44.53
2022-12-04T17:49:06.903Z,44.92
2022-12-04T17:51:36.513Z,44.13
2022-12-04T17:54:05.100Z,41.65
2022-12-04T17:56:33.513Z,43.35
2022-12-04T17:59:01.858Z,43.13
2022-12-04T18:01:31.853Z,42.80
2022-12-04T18:04:04.045Z,41.92
2022-12-04T18:06:34.889Z,43.72
2022-12-04T18:09:03.532Z,41.72
2022-12-04T18:11:34.421Z,42.00
2022-12-04T18:14:10.161Z,41.28
2022-12-04T18:16:43.331Z,41.67
2022-12-04T18:19:13.653Z,42.97
2022-12-04T18:21:42.857Z,40.22
2022-12-04T18:24:11.547Z,42.55
2022-12-04T18:26:41.597Z,42.22
2022-12-04T18:29:11.968Z,42.20
2022-12-04T18:31:41.075Z,42.97
2022-12-04T18:34:10.655Z,43.88
2022-12-04T18:36:42.584Z,41.65
2022-12-04T18:39:14.821Z,41.85
2022-12-04T18:41:43.833Z,43.20
2022-12-04T18:44:12.368Z,42.75
2022-12-04T18:46:41.172Z,44.38
2022-12-04T18:49:10.518Z,42.42
2022-12-04T18:51:46.981Z,43.78
2022-12-04T18:54:19.643Z,43.17
2022-12-04T18:56:47.885Z,44.15
2022-12-04T18:59:18.294Z,43.60
2022-12-04T19:01:46.888Z,43.20
2022-12-04T19:04:17.453Z,42.70
2022-12-04T19:06:49.432Z,43.72
2022-12-04T19:09:19.437Z,42.50
2022-12-04T19:11:48.151Z,45.35
2022-12-04T19:14:23.350Z,44.58
2022-12-04T19:16:52.647Z,44.35
2022-12-04T19:19:21.241Z,45.03
2022-12-04T19:21:50.843Z,44.97
2022-12-04T19:24:19.079Z,45.90
2022-12-04T19:26:48.115Z,46.00
2022-12-04T19:29:16.368Z,44.90
2022-12-04T19:31:44.685Z,46.17
2022-12-04T19:34:13.132Z,44.58
2022-12-04T19:36:42.673Z,46.55
2022-12-04T19:39:12.590Z,46.10
2022-12-04T19:41:41.537Z,46.17
2022-12-04T19:44:46.748Z,45.95
2022-12-04T19:46:59.468Z,47.20
2022-12-04T19:49:27.695Z,46.63
2022-12-04T19:51:56.141Z,46.83
2022-12-04T19:54:26.287Z,47.80
2022-12-04T19:56:54.505Z,46.63
2022-12-04T19:59:22.732Z,46.63
2022-12-04T20:01:51.386Z,47.08
2022-12-04T20:04:19.792Z,46.13
2022-12-04T20:06:48.172Z,47.58
2022-12-04T20:09:20.239Z,46.47
2022-12-04T20:11:50.224Z,47.65
2022-12-04T20:14:19.023Z,47.05
2022-12-04T20:16:47.774Z,46.97
2022-12-04T20:19:17.905Z,47.35
2022-12-04T20:21:47.139Z,46.60
2022-12-04T20:24:17.663Z,46.95
2022-12-04T20:26:47.883Z,47.78
2022-12-04T20:29:20.123Z,48.75
2022-12-04T20:31:48.679Z,46.45
2022-12-04T20:34:19.864Z,44.85
2022-12-04T20:36:49.941Z,47.63
2022-12-04T20:39:19.727Z,46.83
2022-12-04T20:41:48.267Z,47.15
2022-12-04T20:44:19.685Z,46.90
2022-12-04T20:46:48.535Z,46.38
2022-12-04T20:49:22.513Z,49.30
2022-12-04T20:51:52.767Z,47.80
2022-12-04T20:54:22.473Z,48.78
2022-12-04T20:56:53.053Z,48.63
2022-12-04T20:59:24.918Z,48.80
2022-12-04T21:01:54.746Z,47.10
2022-12-04T21:04:23.458Z,47.53
2022-12-04T21:06:51.731Z,48.10
2022-12-04T21:09:22.089Z,46.90
2022-12-04T21:11:52.687Z,47.50
2022-12-04T21:14:41.343Z,47.35
2022-12-04T21:17:13.411Z,48.60
2022-12-04T21:19:41.643Z,47.47
2022-12-04T21:22:10.165Z,50.20
2022-12-04T21:24:39.285Z,48.00
2022-12-04T21:27:09.144Z,49.40
2022-12-04T21:29:40.421Z,49.67
2022-12-04T21:32:09.781Z,47.92
2022-12-04T21:34:38.220Z,48.42
2022-12-04T21:37:06.511Z,47.72
2022-12-04T21:39:36.006Z,47.10
2022-12-04T21:42:22.152Z,46.38
2022-12-04T21:44:51.778Z,47.03
2022-12-04T21:47:20.161Z,48.28
2022-12-04T21:49:48.960Z,48.03
2022-12-04T21:52:17.730Z,45.50
2022-12-04T21:54:46.177Z,47.33
2022-12-04T21:57:14.418Z,46.65
2022-12-04T21:59:42.752Z,47.05
2022-12-04T22:02:14.237Z,45.53
2022-12-04T22:04:43.113Z,45.50
2022-12-04T22:07:11.695Z,45.97
2022-12-04T22:09:40.227Z,45.30
2022-12-04T22:14:57.352Z,44.88
2022-12-04T22:17:30.520Z,44.20
2022-12-04T22:19:59.010Z,45.00
2022-12-04T22:22:27.490Z,43.83
2022-12-04T22:24:55.846Z,46.00
2022-12-04T22:27:24.446Z,45.38
2022-12-04T22:29:52.928Z,44.97
2022-12-04T22:32:21.511Z,44.38
2022-12-04T22:34:51.694Z,43.75
2022-12-04T22:37:19.886Z,46.08
2022-12-04T22:39:48.219Z,44.30
2022-12-04T22:42:16.485Z,44.15
2022-12-04T22:44:44.659Z,45.03
2022-12-04T22:47:13.054Z,44.63
2022-12-04T22:49:41.242Z,43.42
2022-12-04T22:52:10.903Z,42.83
2022-12-04T22:54:39.181Z,43.30
2022-12-04T22:57:07.525Z,42.47
2022-12-04T22:59:35.652Z,45.22
2022-12-04T23:02:03.903Z,43.65
2022-12-04T23:04:32.108Z,43.40
2022-12-04T23:07:00.405Z,43.05
2022-12-04T23:09:32.128Z,43.55
2022-12-04T23:12:00.406Z,43.33
2022-12-04T23:14:28.988Z,41.97
2022-12-04T23:16:57.672Z,41.92
2022-12-04T23:19:25.985Z,42.67
2022-12-04T23:21:57.144Z,42.72
2022-12-04T23:24:26.225Z,39.90
2022-12-04T23:26:55.913Z,42.28
2022-12-04T23:29:51.314Z,42.22
2022-12-04T23:32:12.692Z,42.75
2022-12-04T23:34:41.044Z,42.72
2022-12-04T23:37:09.505Z,41.72
2022-12-04T23:39:38.042Z,42.25
2022-12-04T23:42:07.714Z,42.10
2022-12-04T23:44:35.918Z,41.67
2022-12-04T23:47:04.908Z,41.90
2022-12-04T23:49:33.092Z,43.67
2022-12-04T23:52:01.380Z,42.05
2022-12-04T23:54:35.093Z,41.28
2022-12-04T23:57:03.536Z,43.17
2022-12-04T23:59:33.180Z,42.70
